sensor_id;sensor_type;location;lat;lon;timestamp;pressure;altitude;pressure_sealevel;temperature;humidity
72857;BME280;62742;52.136;4.500;2023-08-24T00:01:11;101920.38;;;17.15;89.64
72857;BME280;62742;52.136;4.500;2023-08-24T00:03:45;101904.34;;;17.18;89.74
72857;BME280;62742;52.136;4.500;2023-08-24T00:06:12;101881.13;;;17.26;89.19
72857;BME280;62742;52.136;4.500;2023-08-24T00:08:52;101879.66;;;17.14;89.59
72857;BME280;62742;52.136;4.500;2023-08-24T00:11:23;101878.63;;;17.20;89.55
72857;BME280;62742;52.136;4.500;2023-08-24T00:13:51;101882.88;;;17.27;89.12
72857;BME280;62742;52.136;4.500;2023-08-24T00:16:19;101881.06;;;17.28;89.25
72857;BME280;62742;52.136;4.500;2023-08-24T00:18:48;101873.03;;;17.31;89.15
72857;BME280;62742;52.136;4.500;2023-08-24T00:21:16;101880.97;;;17.32;89.09
72857;BME280;62742;52.136;4.500;2023-08-24T00:23:49;101873.94;;;17.30;89.15
72857;BME280;62742;52.136;4.500;2023-08-24T00:26:17;101888.84;;;17.35;89.09
72857;BME280;62742;52.136;4.500;2023-08-24T00:28:44;101892.41;;;17.34;89.22
72857;BME280;62742;52.136;4.500;2023-08-24T00:34:13;101877.47;;;17.30;89.21
72857;BME280;62742;52.136;4.500;2023-08-24T00:36:39;101881.03;;;17.29;89.37
72857;BME280;62742;52.136;4.500;2023-08-24T00:39:15;101872.25;;;17.27;89.58
72857;BME280;62742;52.136;4.500;2023-08-24T00:42:05;101868.75;;;17.25;89.81
72857;BME280;62742;52.136;4.500;2023-08-24T00:44:45;101872.22;;;17.29;90.06
72857;BME280;62742;52.136;4.500;2023-08-24T00:47:12;101870.41;;;17.29;89.87
72857;BME280;62742;52.136;4.500;2023-08-24T00:49:39;101866.84;;;17.30;89.91
72857;BME280;62742;52.136;4.500;2023-08-24T00:52:07;101873.09;;;17.28;90.18
72857;BME280;62742;52.136;4.500;2023-08-24T00:55:01;101867.78;;;17.28;89.44
72857;BME280;62742;52.136;4.500;2023-08-24T00:57:50;101875.91;;;17.22;90.57
72857;BME280;62742;52.136;4.500;2023-08-24T01:00:28;101882.88;;;17.27;90.76
72857;BME280;62742;52.136;4.500;2023-08-24T01:03:05;101894.50;;;17.22;90.95
72857;BME280;62742;52.136;4.500;2023-08-24T01:05:38;101883.84;;;17.23;91.41
72857;BME280;62742;52.136;4.500;2023-08-24T01:08:15;101881.91;;;17.30;90.94
72857;BME280;62742;52.136;4.500;2023-08-24T01:14:21;101871.03;;;17.39;91.16
72857;BME280;62742;52.136;4.500;2023-08-24T01:17:13;101869.34;;;17.35;92.01
72857;BME280;62742;52.136;4.500;2023-08-24T01:19:43;101860.56;;;17.33;92.00
72857;BME280;62742;52.136;4.500;2023-08-24T01:22:33;101864.03;;;17.35;92.01
72857;BME280;62742;52.136;4.500;2023-08-24T01:28:12;101870.38;;;17.31;93.20
72857;BME280;62742;52.136;4.500;2023-08-24T01:30:41;101864.25;;;17.29;93.40
72857;BME280;62742;52.136;4.500;2023-08-24T01:33:11;101856.31;;;17.27;93.45
72857;BME280;62742;52.136;4.500;2023-08-24T01:35:39;101856.25;;;17.29;93.78
72857;BME280;62742;52.136;4.500;2023-08-24T01:38:07;101844.72;;;17.30;94.19
72857;BME280;62742;52.136;4.500;2023-08-24T01:43:51;101821.78;;;17.27;94.27
72857;BME280;62742;52.136;4.500;2023-08-24T01:46:21;101824.44;;;17.27;94.48
72857;BME280;62742;52.136;4.500;2023-08-24T01:49:26;101832.56;;;17.21;95.14
72857;BME280;62742;52.136;4.500;2023-08-24T01:51:56;101840.53;;;17.21;95.21
72857;BME280;62742;52.136;4.500;2023-08-24T01:54:24;101840.53;;;17.21;95.19
72857;BME280;62742;52.136;4.500;2023-08-24T01:57:34;101829.81;;;17.24;94.58
72857;BME280;62742;52.136;4.500;2023-08-24T02:00:06;101819.28;;;17.21;94.99
72857;BME280;62742;52.136;4.500;2023-08-24T02:02:35;101821.03;;;17.22;94.83
72857;BME280;62742;52.136;4.500;2023-08-24T02:05:04;101815.84;;;17.17;94.94
72857;BME280;62742;52.136;4.500;2023-08-24T02:07:30;101808.88;;;17.13;94.37
72857;BME280;62742;52.136;4.500;2023-08-24T02:09:57;101807.16;;;17.11;94.99
72857;BME280;62742;52.136;4.500;2023-08-24T02:12:24;101804.50;;;17.11;94.66
72857;BME280;62742;52.136;4.500;2023-08-24T02:14:50;101800.97;;;17.10;94.41
72857;BME280;62742;52.136;4.500;2023-08-24T02:17:39;101783.34;;;17.08;94.55
72857;BME280;62742;52.136;4.500;2023-08-24T02:20:10;101793.06;;;17.09;94.58
72857;BME280;62742;52.136;4.500;2023-08-24T02:23:06;101778.28;;;16.98;94.94
72857;BME280;62742;52.136;4.500;2023-08-24T02:25:34;101770.41;;;16.95;95.28
72857;BME280;62742;52.136;4.500;2023-08-24T02:28:01;101767.78;;;16.94;95.36
72857;BME280;62742;52.136;4.500;2023-08-24T02:30:27;101771.41;;;16.91;95.55
72857;BME280;62742;52.136;4.500;2023-08-24T02:32:55;101772.38;;;16.87;95.77
72857;BME280;62742;52.136;4.500;2023-08-24T02:35:29;101775.03;;;16.87;96.03
72857;BME280;62742;52.136;4.500;2023-08-24T02:38:02;101793.59;;;16.89;95.99
72857;BME280;62742;52.136;4.500;2023-08-24T02:40:30;101788.47;;;16.81;95.34
72857;BME280;62742;52.136;4.500;2023-08-24T02:43:03;101790.06;;;16.88;95.29
72857;BME280;62742;52.136;4.500;2023-08-24T02:45:38;101792.81;;;16.83;95.35
72857;BME280;62742;52.136;4.500;2023-08-24T02:48:05;101794.72;;;16.78;95.03
72857;BME280;62742;52.136;4.500;2023-08-24T02:50:35;101779.81;;;16.73;94.94
72857;BME280;62742;52.136;4.500;2023-08-24T02:53:03;101784.41;;;16.66;94.64
72857;BME280;62742;52.136;4.500;2023-08-24T02:55:32;101779.06;;;16.68;94.53
72857;BME280;62742;52.136;4.500;2023-08-24T02:58:04;101772.84;;;16.69;94.62
72857;BME280;62742;52.136;4.500;2023-08-24T03:00:30;101765.84;;;16.66;94.83
72857;BME280;62742;52.136;4.500;2023-08-24T03:02:57;101756.13;;;16.65;94.88
72857;BME280;62742;52.136;4.500;2023-08-24T03:05:24;101755.28;;;16.63;94.59
72857;BME280;62742;52.136;4.500;2023-08-24T03:07:51;101750.00;;;16.63;94.85
72857;BME280;62742;52.136;4.500;2023-08-24T03:10:25;101746.47;;;16.62;94.33
72857;BME280;62742;52.136;4.500;2023-08-24T03:13:01;101739.06;;;16.74;94.29
72857;BME280;62742;52.136;4.500;2023-08-24T03:15:30;101732.28;;;16.63;95.04
72857;BME280;62742;52.136;4.500;2023-08-24T03:17:57;101723.63;;;16.57;95.34
72857;BME280;62742;52.136;4.500;2023-08-24T03:20:23;101720.16;;;16.53;95.16
72857;BME280;62742;52.136;4.500;2023-08-24T03:22:50;101725.47;;;16.53;95.16
72857;BME280;62742;52.136;4.500;2023-08-24T03:25:16;101727.28;;;16.51;94.96
72857;BME280;62742;52.136;4.500;2023-08-24T03:27:45;101733.59;;;16.47;95.24
72857;BME280;62742;52.136;4.500;2023-08-24T03:30:11;101728.38;;;16.44;95.22
72857;BME280;62742;52.136;4.500;2023-08-24T03:32:45;101721.41;;;16.40;95.18
72857;BME280;62742;52.136;4.500;2023-08-24T03:35:22;101722.38;;;16.36;95.47
72857;BME280;62742;52.136;4.500;2023-08-24T03:37:54;101719.75;;;16.36;95.35
72857;BME280;62742;52.136;4.500;2023-08-24T03:40:20;101726.88;;;16.34;95.07
72857;BME280;62742;52.136;4.500;2023-08-24T03:42:49;101727.75;;;16.33;94.83
72857;BME280;62742;52.136;4.500;2023-08-24T03:45:16;101716.34;;;16.31;94.98
72857;BME280;62742;52.136;4.500;2023-08-24T03:47:43;101722.56;;;16.30;95.04
72857;BME280;62742;52.136;4.500;2023-08-24T03:50:15;101722.56;;;16.30;94.89
72857;BME280;62742;52.136;4.500;2023-08-24T03:52:52;101720.88;;;16.25;95.18
72857;BME280;62742;52.136;4.500;2023-08-24T03:55:20;101723.53;;;16.25;95.18
72857;BME280;62742;52.136;4.500;2023-08-24T03:57:51;101728.03;;;16.22;95.32
72857;BME280;62742;52.136;4.500;2023-08-24T04:00:26;101733.38;;;16.20;95.28
72857;BME280;62742;52.136;4.500;2023-08-24T04:02:52;101734.34;;;16.18;95.30
72857;BME280;62742;52.136;4.500;2023-08-24T04:05:27;101735.22;;;16.18;95.27
72857;BME280;62742;52.136;4.500;2023-08-24T04:08:09;101722.06;;;16.14;95.61
72857;BME280;62742;52.136;4.500;2023-08-24T04:10:37;101729.03;;;16.18;95.20
72857;BME280;62742;52.136;4.500;2023-08-24T04:13:04;101723.81;;;16.15;95.26
72857;BME280;62742;52.136;4.500;2023-08-24T04:15:32;101724.56;;;16.20;96.17
72857;BME280;62742;52.136;4.500;2023-08-24T04:18:01;101721.88;;;16.21;95.97
72857;BME280;62742;52.136;4.500;2023-08-24T04:20:39;101720.91;;;16.24;96.35
72857;BME280;62742;52.136;4.500;2023-08-24T04:23:05;101711.25;;;16.23;96.50
72857;BME280;62742;52.136;4.500;2023-08-24T04:25:32;101717.34;;;16.26;96.63
72857;BME280;62742;52.136;4.500;2023-08-24T04:27:58;101718.97;;;16.31;96.42
72857;BME280;62742;52.136;4.500;2023-08-24T04:30:30;101713.69;;;16.31;96.79
72857;BME280;62742;52.136;4.500;2023-08-24T04:33:01;101710.13;;;16.32;97.19
72857;BME280;62742;52.136;4.500;2023-08-24T04:35:33;101711.09;;;16.27;96.43
72857;BME280;62742;52.136;4.500;2023-08-24T04:38:35;101712.88;;;16.27;96.05
72857;BME280;62742;52.136;4.500;2023-08-24T04:41:11;101711.00;;;16.32;96.57
72857;BME280;62742;52.136;4.500;2023-08-24T04:43:51;101713.34;;;16.43;96.59
72857;BME280;62742;52.136;4.500;2023-08-24T04:46:18;101706.41;;;16.39;97.95
72857;BME280;62742;52.136;4.500;2023-08-24T04:48:44;101702.09;;;16.35;98.66
72857;BME280;62742;52.136;4.500;2023-08-24T04:51:15;101698.13;;;16.51;98.62
72857;BME280;62742;52.136;4.500;2023-08-24T04:53:46;101689.19;;;16.55;98.62
72857;BME280;62742;52.136;4.500;2023-08-24T04:56:16;101686.19;;;16.68;98.66
72857;BME280;62742;52.136;4.500;2023-08-24T04:58:58;101685.47;;;16.61;98.60
72857;BME280;62742;52.136;4.500;2023-08-24T05:01:27;101692.72;;;16.54;99.56
72857;BME280;62742;52.136;4.500;2023-08-24T05:03:59;101696.34;;;16.52;99.93
72857;BME280;62742;52.136;4.500;2023-08-24T05:06:28;101689.38;;;16.48;100.00
72857;BME280;62742;52.136;4.500;2023-08-24T05:08:56;101686.81;;;16.43;100.00
72857;BME280;62742;52.136;4.500;2023-08-24T05:11:26;101667.25;;;16.49;100.00
72857;BME280;62742;52.136;4.500;2023-08-24T05:13:55;101669.94;;;16.47;100.00
72857;BME280;62742;52.136;4.500;2023-08-24T05:16:22;101662.75;;;16.82;99.71
72857;BME280;62742;52.136;4.500;2023-08-24T05:19:15;101655.19;;;16.68;99.73
72857;BME280;62742;52.136;4.500;2023-08-24T05:21:49;101660.59;;;16.65;100.00
72857;BME280;62742;52.136;4.500;2023-08-24T05:24:20;101664.09;;;16.67;100.00
72857;BME280;62742;52.136;4.500;2023-08-24T05:26:57;101657.97;;;16.63;100.00
72857;BME280;62742;52.136;4.500;2023-08-24T05:29:26;101659.63;;;16.68;100.00
72857;BME280;62742;52.136;4.500;2023-08-24T05:31:54;101655.91;;;16.75;100.00
72857;BME280;62742;52.136;4.500;2023-08-24T05:34:22;101661.91;;;16.81;100.00
72857;BME280;62742;52.136;4.500;2023-08-24T05:36:51;101654.75;;;16.85;100.00
72857;BME280;62742;52.136;4.500;2023-08-24T05:39:29;101645.03;;;16.84;100.00
72857;BME280;62742;52.136;4.500;2023-08-24T05:41:55;101657.22;;;17.21;100.00
72857;BME280;62742;52.136;4.500;2023-08-24T05:44:32;101646.94;;;17.10;100.00
72857;BME280;62742;52.136;4.500;2023-08-24T05:47:11;101645.03;;;17.15;100.00
72857;BME280;62742;52.136;4.500;2023-08-24T05:49:38;101642.78;;;17.30;100.00
72857;BME280;62742;52.136;4.500;2023-08-24T05:52:04;101641.94;;;17.29;100.00
72857;BME280;62742;52.136;4.500;2023-08-24T05:54:31;101639.88;;;17.39;100.00
72857;BME280;62742;52.136;4.500;2023-08-24T05:56:58;101643.22;;;17.46;100.00
72857;BME280;62742;52.136;4.500;2023-08-24T05:59:28;101637.91;;;17.46;100.00
72857;BME280;62742;52.136;4.500;2023-08-24T06:01:55;101622.19;;;17.66;100.00
72857;BME280;62742;52.136;4.500;2023-08-24T06:04:21;101616.81;;;17.94;100.00
72857;BME280;62742;52.136;4.500;2023-08-24T06:07:20;101611.78;;;18.12;100.00
72857;BME280;62742;52.136;4.500;2023-08-24T06:09:56;101618.31;;;18.54;97.97
72857;BME280;62742;52.136;4.500;2023-08-24T06:12:23;101607.31;;;18.88;95.96
72857;BME280;62742;52.136;4.500;2023-08-24T06:14:50;101604.38;;;19.18;93.51
72857;BME280;62742;52.136;4.500;2023-08-24T06:17:17;101598.75;;;19.48;91.12
72857;BME280;62742;52.136;4.500;2023-08-24T06:20:06;101584.72;;;19.65;88.23
72857;BME280;62742;52.136;4.500;2023-08-24T06:22:43;101580.97;;;19.91;88.89
72857;BME280;62742;52.136;4.500;2023-08-24T06:25:10;101573.75;;;20.13;87.46
72857;BME280;62742;52.136;4.500;2023-08-24T06:27:37;101577.81;;;20.22;88.65
72857;BME280;62742;52.136;4.500;2023-08-24T06:30:04;101569.53;;;20.49;86.80
72857;BME280;62742;52.136;4.500;2023-08-24T06:36:27;101572.81;;;20.74;84.06
72857;BME280;62742;52.136;4.500;2023-08-24T06:39:40;101577.31;;;20.93;84.21
72857;BME280;62742;52.136;4.500;2023-08-24T06:42:08;101589.78;;;21.30;83.49
72857;BME280;62742;52.136;4.500;2023-08-24T06:44:51;101583.63;;;21.47;80.56
72857;BME280;62742;52.136;4.500;2023-08-24T06:47:32;101587.53;;;21.40;81.13
72857;BME280;62742;52.136;4.500;2023-08-24T06:50:01;101580.25;;;21.25;82.06
72857;BME280;62742;52.136;4.500;2023-08-24T06:52:33;101592.88;;;21.21;82.81
72857;BME280;62742;52.136;4.500;2023-08-24T06:55:11;101600.16;;;21.56;82.81
72857;BME280;62742;52.136;4.500;2023-08-24T06:57:57;101583.66;;;21.65;83.03
72857;BME280;62742;52.136;4.500;2023-08-24T07:00:24;101559.03;;;21.93;82.61
72857;BME280;62742;52.136;4.500;2023-08-24T07:02:52;101560.81;;;21.93;81.47
72857;BME280;62742;52.136;4.500;2023-08-24T07:05:23;101561.72;;;22.44;80.22
72857;BME280;62742;52.136;4.500;2023-08-24T07:07:51;101559.72;;;22.81;77.33
72857;BME280;62742;52.136;4.500;2023-08-24T07:10:41;101547.06;;;22.83;80.02
72857;BME280;62742;52.136;4.500;2023-08-24T07:13:10;101550.72;;;22.98;77.61
72857;BME280;62742;52.136;4.500;2023-08-24T07:15:36;101548.31;;;23.25;77.67
72857;BME280;62742;52.136;4.500;2023-08-24T07:18:04;101551.56;;;23.77;75.13
72857;BME280;62742;52.136;4.500;2023-08-24T07:20:37;101552.25;;;24.11;74.10
72857;BME280;62742;52.136;4.500;2023-08-24T07:23:06;101548.97;;;24.20;74.89
72857;BME280;62742;52.136;4.500;2023-08-24T07:25:33;101541.69;;;24.07;72.61
72857;BME280;62742;52.136;4.500;2023-08-24T07:28:00;101536.88;;;24.13;72.58
72857;BME280;62742;52.136;4.500;2023-08-24T07:30:32;101541.47;;;23.96;73.54
72857;BME280;62742;52.136;4.500;2023-08-24T07:33:03;101544.53;;;23.90;76.33
72857;BME280;62742;52.136;4.500;2023-08-24T07:35:34;101539.84;;;24.08;70.99
72857;BME280;62742;52.136;4.500;2023-08-24T07:38:23;101538.78;;;23.96;73.85
72857;BME280;62742;52.136;4.500;2023-08-24T07:40:51;101524.47;;;23.81;74.23
72857;BME280;62742;52.136;4.500;2023-08-24T07:43:23;101532.81;;;23.91;74.32
72857;BME280;62742;52.136;4.500;2023-08-24T07:45:58;101533.31;;;23.83;73.20
72857;BME280;62742;52.136;4.500;2023-08-24T07:48:33;101539.53;;;23.84;71.42
72857;BME280;62742;52.136;4.500;2023-08-24T07:51:07;101536.72;;;23.55;74.28
72857;BME280;62742;52.136;4.500;2023-08-24T07:53:39;101524.56;;;23.49;75.61
72857;BME280;62742;52.136;4.500;2023-08-24T07:56:07;101510.91;;;23.38;74.97
72857;BME280;62742;52.136;4.500;2023-08-24T07:58:51;101517.16;;;23.39;76.90
72857;BME280;62742;52.136;4.500;2023-08-24T08:01:50;101511.72;;;23.24;77.08
72857;BME280;62742;52.136;4.500;2023-08-24T08:04:23;101512.84;;;23.20;74.76
72857;BME280;62742;52.136;4.500;2023-08-24T08:06:53;101498.13;;;23.27;75.50
72857;BME280;62742;52.136;4.500;2023-08-24T08:09:46;101495.19;;;23.16;75.57
72857;BME280;62742;52.136;4.500;2023-08-24T08:12:36;101498.03;;;22.97;76.89
72857;BME280;62742;52.136;4.500;2023-08-24T08:15:15;101502.81;;;22.92;77.65
72857;BME280;62742;52.136;4.500;2023-08-24T08:18:04;101491.91;;;23.11;77.94
72857;BME280;62742;52.136;4.500;2023-08-24T08:20:34;101494.00;;;23.22;77.83
72857;BME280;62742;52.136;4.500;2023-08-24T08:23:02;101489.47;;;23.22;78.33
72857;BME280;62742;52.136;4.500;2023-08-24T08:25:30;101490.66;;;23.32;77.01
72857;BME280;62742;52.136;4.500;2023-08-24T08:28:23;101493.44;;;23.31;77.97
72857;BME280;62742;52.136;4.500;2023-08-24T08:30:54;101474.59;;;23.47;79.95
72857;BME280;62742;52.136;4.500;2023-08-24T08:33:21;101471.91;;;23.47;79.85
72857;BME280;62742;52.136;4.500;2023-08-24T08:36:06;101472.41;;;23.53;77.61
72857;BME280;62742;52.136;4.500;2023-08-24T08:38:35;101463.25;;;23.58;79.00
72857;BME280;62742;52.136;4.500;2023-08-24T08:41:22;101458.81;;;23.57;79.20
72857;BME280;62742;52.136;4.500;2023-08-24T08:44:18;101467.72;;;23.43;78.10
72857;BME280;62742;52.136;4.500;2023-08-24T08:46:54;101472.50;;;23.38;78.23
72857;BME280;62742;52.136;4.500;2023-08-24T08:49:45;101474.22;;;23.39;79.70
72857;BME280;62742;52.136;4.500;2023-08-24T08:52:33;101468.44;;;23.30;80.10
72857;BME280;62742;52.136;4.500;2023-08-24T08:55:25;101463.09;;;23.45;78.90
72857;BME280;62742;52.136;4.500;2023-08-24T08:58:18;101460.03;;;23.37;80.26
72857;BME280;62742;52.136;4.500;2023-08-24T09:01:11;101451.22;;;23.34;79.01
72857;BME280;62742;52.136;4.500;2023-08-24T09:03:49;101439.72;;;23.47;78.26
72857;BME280;62742;52.136;4.500;2023-08-24T09:06:24;101442.03;;;23.39;79.10
72857;BME280;62742;52.136;4.500;2023-08-24T09:09:06;101438.78;;;23.33;78.28
72857;BME280;62742;52.136;4.500;2023-08-24T09:15:51;101443.97;;;23.21;78.66
72857;BME280;62742;52.136;4.500;2023-08-24T09:18:21;101460.41;;;23.30;79.94
72857;BME280;62742;52.136;4.500;2023-08-24T09:24:34;101492.59;;;23.30;79.35
72857;BME280;62742;52.136;4.500;2023-08-24T09:27:23;101499.19;;;23.25;80.84
72857;BME280;62742;52.136;4.500;2023-08-24T09:31:15;101479.72;;;23.05;82.49
72857;BME280;62742;52.136;4.500;2023-08-24T09:37:24;101460.59;;;22.95;82.40
72857;BME280;62742;52.136;4.500;2023-08-24T09:46:59;101449.97;;;22.94;84.14
72857;BME280;62742;52.136;4.500;2023-08-24T10:00:02;101444.97;;;22.88;86.40
72857;BME280;62742;52.136;4.500;2023-08-24T10:05:12;101450.75;;;22.96;85.91
72857;BME280;62742;52.136;4.500;2023-08-24T10:07:56;101453.44;;;22.96;85.89
72857;BME280;62742;52.136;4.500;2023-08-24T10:16:46;101461.31;;;22.83;87.83
72857;BME280;62742;52.136;4.500;2023-08-24T10:27:23;101442.22;;;22.89;86.13
72857;BME280;62742;52.136;4.500;2023-08-24T10:29:52;101443.94;;;22.90;87.76
72857;BME280;62742;52.136;4.500;2023-08-24T10:32:23;101454.22;;;22.98;87.26
72857;BME280;62742;52.136;4.500;2023-08-24T10:41:27;101509.03;;;22.76;87.73
72857;BME280;62742;52.136;4.500;2023-08-24T10:44:05;101493.91;;;22.59;84.88
72857;BME280;62742;52.136;4.500;2023-08-24T10:46:37;101474.31;;;22.26;82.16
72857;BME280;62742;52.136;4.500;2023-08-24T10:50:09;101456.31;;;22.45;81.92
72857;BME280;62742;52.136;4.500;2023-08-24T10:52:45;101460.53;;;22.81;81.36
72857;BME280;62742;52.136;4.500;2023-08-24T10:55:27;101473.25;;;22.93;80.69
72857;BME280;62742;52.136;4.500;2023-08-24T10:57:59;101463.09;;;22.98;80.51
72857;BME280;62742;52.136;4.500;2023-08-24T11:00:31;101452.84;;;22.91;79.99
72857;BME280;62742;52.136;4.500;2023-08-24T11:03:02;101436.84;;;22.89;81.75
72857;BME280;62742;52.136;4.500;2023-08-24T11:05:32;101422.97;;;22.67;80.36
72857;BME280;62742;52.136;4.500;2023-08-24T11:08:04;101432.91;;;22.81;79.92
72857;BME280;62742;52.136;4.500;2023-08-24T11:16:39;101413.06;;;22.83;78.48
72857;BME280;62742;52.136;4.500;2023-08-24T11:19:06;101389.19;;;22.94;79.71
72857;BME280;62742;52.136;4.500;2023-08-24T11:21:40;101386.03;;;23.02;79.44
72857;BME280;62742;52.136;4.500;2023-08-24T11:24:17;101391.78;;;23.12;80.19
72857;BME280;62742;52.136;4.500;2023-08-24T11:27:05;101374.91;;;23.10;78.85
72857;BME280;62742;52.136;4.500;2023-08-24T11:29:33;101377.34;;;23.29;79.18
72857;BME280;62742;52.136;4.500;2023-08-24T11:32:05;101383.38;;;23.32;77.29
72857;BME280;62742;52.136;4.500;2023-08-24T11:34:34;101397.94;;;23.28;78.67
72857;BME280;62742;52.136;4.500;2023-08-24T11:37:04;101398.66;;;23.16;79.37
72857;BME280;62742;52.136;4.500;2023-08-24T11:39:50;101372.22;;;23.10;78.91
72857;BME280;62742;52.136;4.500;2023-08-24T11:42:16;101373.75;;;23.14;80.29
72857;BME280;62742;52.136;4.500;2023-08-24T11:44:49;101363.03;;;23.14;78.66
72857;BME280;62742;52.136;4.500;2023-08-24T11:47:20;101363.19;;;23.27;79.68
72857;BME280;62742;52.136;4.500;2023-08-24T11:49:49;101355.81;;;23.59;78.16
72857;BME280;62742;52.136;4.500;2023-08-24T11:52:16;101350.34;;;23.46;79.25
72857;BME280;62742;52.136;4.500;2023-08-24T11:54:43;101360.41;;;23.71;76.36
72857;BME280;62742;52.136;4.500;2023-08-24T11:57:37;101347.66;;;23.46;75.93
72857;BME280;62742;52.136;4.500;2023-08-24T12:00:41;101334.75;;;23.39;77.06
72857;BME280;62742;52.136;4.500;2023-08-24T12:04:14;101329.53;;;23.21;78.25
72857;BME280;62742;52.136;4.500;2023-08-24T12:07:53;101319.38;;;23.26;79.82
72857;BME280;62742;52.136;4.500;2023-08-24T12:10:47;101303.09;;;23.58;79.55
72857;BME280;62742;52.136;4.500;2023-08-24T12:14:27;101306.75;;;23.28;78.33
72857;BME280;62742;52.136;4.500;2023-08-24T12:17:46;101294.00;;;23.46;79.25
72857;BME280;62742;52.136;4.500;2023-08-24T12:21:21;101288.53;;;23.62;78.76
72857;BME280;62742;52.136;4.500;2023-08-24T12:23:57;101280.13;;;23.83;77.57
72857;BME280;62742;52.136;4.500;2023-08-24T12:27:00;101272.81;;;23.85;76.62
72857;BME280;62742;52.136;4.500;2023-08-24T12:29:45;101264.16;;;23.94;76.95
72857;BME280;62742;52.136;4.500;2023-08-24T12:34:14;101267.78;;;24.48;76.11
72857;BME280;62742;52.136;4.500;2023-08-24T12:36:44;101272.00;;;24.52;74.89
72857;BME280;62742;52.136;4.500;2023-08-24T12:39:11;101258.91;;;24.20;73.68
72857;BME280;62742;52.136;4.500;2023-08-24T12:41:47;101262.44;;;24.20;74.50
72857;BME280;62742;52.136;4.500;2023-08-24T12:44:35;101265.66;;;24.13;74.79
72857;BME280;62742;52.136;4.500;2023-08-24T12:50:30;101264.88;;;24.11;74.91
72857;BME280;62742;52.136;4.500;2023-08-24T12:52:56;101269.19;;;24.13;75.92
72857;BME280;62742;52.136;4.500;2023-08-24T12:55:27;101263.03;;;23.84;75.81
72857;BME280;62742;52.136;4.500;2023-08-24T12:58:16;101244.91;;;24.15;75.67
72857;BME280;62742;52.136;4.500;2023-08-24T13:01:14;101257.13;;;24.60;75.47
72857;BME280;62742;52.136;4.500;2023-08-24T13:03:48;101259.59;;;24.63;72.04
72857;BME280;62742;52.136;4.500;2023-08-24T13:06:59;101240.06;;;24.87;71.76
72857;BME280;62742;52.136;4.500;2023-08-24T13:09:33;101230.03;;;25.15;73.99
72857;BME280;62742;52.136;4.500;2023-08-24T13:14:53;101242.03;;;25.98;67.49
72857;BME280;62742;52.136;4.500;2023-08-24T13:17:23;101253.25;;;25.91;69.38
72857;BME280;62742;52.136;4.500;2023-08-24T13:19:49;101264.91;;;25.79;71.15
72857;BME280;62742;52.136;4.500;2023-08-24T13:22:59;101264.03;;;25.91;68.22
72857;BME280;62742;52.136;4.500;2023-08-24T13:25:58;101274.19;;;25.75;69.35
72857;BME280;62742;52.136;4.500;2023-08-24T13:31:11;101266.03;;;25.64;71.30
72857;BME280;62742;52.136;4.500;2023-08-24T13:33:37;101260.22;;;25.57;71.25
72857;BME280;62742;52.136;4.500;2023-08-24T13:39:45;101241.59;;;25.67;70.99
72857;BME280;62742;52.136;4.500;2023-08-24T13:42:12;101229.75;;;25.93;69.81
72857;BME280;62742;52.136;4.500;2023-08-24T13:48:24;101230.59;;;26.42;69.54
72857;BME280;62742;52.136;4.500;2023-08-24T13:50:51;101221.56;;;26.79;67.44
72857;BME280;62742;52.136;4.500;2023-08-24T13:53:19;101214.66;;;26.75;68.34
72857;BME280;62742;52.136;4.500;2023-08-24T13:55:46;101206.34;;;26.66;69.13
72857;BME280;62742;52.136;4.500;2023-08-24T14:02:32;101194.47;;;26.80;69.18
72857;BME280;62742;52.136;4.500;2023-08-24T14:05:25;101189.81;;;26.82;69.74
72857;BME280;62742;52.136;4.500;2023-08-24T14:09:08;101194.25;;;26.59;69.28
72857;BME280;62742;52.136;4.500;2023-08-24T14:12:35;101182.31;;;26.86;68.12
72857;BME280;62742;52.136;4.500;2023-08-24T14:15:27;101184.78;;;26.89;69.73
72857;BME280;62742;52.136;4.500;2023-08-24T14:18:35;101197.03;;;26.93;69.30
72857;BME280;62742;52.136;4.500;2023-08-24T14:21:30;101196.53;;;26.77;69.71
72857;BME280;62742;52.136;4.500;2023-08-24T14:24:34;101180.72;;;26.83;71.60
72857;BME280;62742;52.136;4.500;2023-08-24T14:27:22;101183.06;;;26.77;72.32
72857;BME280;62742;52.136;4.500;2023-08-24T14:29:49;101169.31;;;26.68;71.49
72857;BME280;62742;52.136;4.500;2023-08-24T14:32:32;101171.84;;;26.59;71.13
72857;BME280;62742;52.136;4.500;2023-08-24T14:35:12;101171.22;;;26.55;70.87
72857;BME280;62742;52.136;4.500;2023-08-24T14:38:00;101161.72;;;26.85;69.77
72857;BME280;62742;52.136;4.500;2023-08-24T14:40:52;101135.97;;;27.15;70.36
72857;BME280;62742;52.136;4.500;2023-08-24T14:44:09;101136.34;;;27.10;69.78
72857;BME280;62742;52.136;4.500;2023-08-24T14:46:49;101141.59;;;27.34;70.45
72857;BME280;62742;52.136;4.500;2023-08-24T14:49:15;101141.50;;;27.68;66.76
72857;BME280;62742;52.136;4.500;2023-08-24T14:52:07;101144.81;;;27.72;67.26
72857;BME280;62742;52.136;4.500;2023-08-24T14:54:55;101140.94;;;27.86;66.62
72857;BME280;62742;52.136;4.500;2023-08-24T14:57:31;101124.84;;;27.95;66.20
72857;BME280;62742;52.136;4.500;2023-08-24T15:00:00;101127.91;;;28.02;64.89
72857;BME280;62742;52.136;4.500;2023-08-24T15:02:31;101138.31;;;28.07;66.24
72857;BME280;62742;52.136;4.500;2023-08-24T15:04:58;101128.09;;;28.10;65.20
72857;BME280;62742;52.136;4.500;2023-08-24T15:07:25;101117.09;;;27.91;63.69
72857;BME280;62742;52.136;4.500;2023-08-24T15:09:51;101126.59;;;27.96;65.11
72857;BME280;62742;52.136;4.500;2023-08-24T15:12:18;101131.78;;;27.77;65.27
72857;BME280;62742;52.136;4.500;2023-08-24T15:15:00;101131.31;;;27.72;66.76
72857;BME280;62742;52.136;4.500;2023-08-24T15:17:30;101130.56;;;27.37;66.94